Pistol River, Oregon
Current Conditions -  °F | °C
As of 6:56 PM on Friday 24 Oct 2014 (Local Time) from KBOK Reporting Station
Broken Clouds Broken Clouds  
Wind Chill: 17°   Ceiling: 3800
Heat Index: 17°   Visibility: 10mi
Dew Point: 13°   Wind: 8mph
Humidity: 78%   Direction: 130°SE
Pressure: 29.71"   Gusts: NA
Location:  42.5771°N, 124.359°W
Report Text: KBOK 250156Z AUTO 13007KT 10SM BKN038 17/13 A2971 RMK AO2 T01660127 BKN V SCT SLP060
Loading
Personal Weather Stations






























Interactive Weather Map
Tropical Storm Tracking
New forecast layout! Learn more

10-Day Weather Forecast

Advertisements
Track Severe Weather on mobile